sensor_id;sensor_type;location;lat;lon;timestamp;pressure;altitude;pressure_sealevel;temperature;humidity
14041;BME280;7095;51.388;6.196;2023-05-03T00:00:28;54519.13;;;-145.32;100.00
14041;BME280;7095;51.388;6.196;2023-05-03T00:02:56;54580.78;;;-145.32;100.00
14041;BME280;7095;51.388;6.196;2023-05-03T00:05:25;54588.75;;;-145.32;100.00
14041;BME280;7095;51.388;6.196;2023-05-03T00:07:54;54564.88;;;-145.32;100.00
14041;BME280;7095;51.388;6.196;2023-05-03T00:10:24;54594.69;;;-145.32;100.00
14041;BME280;7095;51.388;6.196;2023-05-03T00:12:53;54650.38;;;-145.32;100.00
14041;BME280;7095;51.388;6.196;2023-05-03T00:15:24;54606.63;;;-145.32;100.00
14041;BME280;7095;51.388;6.196;2023-05-03T00:17:53;54628.50;;;-145.32;100.00
14041;BME280;7095;51.388;6.196;2023-05-03T00:20:22;54646.41;;;-145.32;100.00
14041;BME280;7095;51.388;6.196;2023-05-03T00:22:52;54644.41;;;-145.32;100.00
14041;BME280;7095;51.388;6.196;2023-05-03T00:25:20;54666.28;;;-145.32;100.00
14041;BME280;7095;51.388;6.196;2023-05-03T00:27:49;54666.28;;;-145.32;100.00
14041;BME280;7095;51.388;6.196;2023-05-03T00:30:18;54692.16;;;-145.32;100.00
14041;BME280;7095;51.388;6.196;2023-05-03T00:32:48;54763.75;;;-145.32;100.00
14041;BME280;7095;51.388;6.196;2023-05-03T00:35:17;54696.13;;;-145.32;100.00
14041;BME280;7095;51.388;6.196;2023-05-03T00:37:46;54702.09;;;-145.32;100.00
14041;BME280;7095;51.388;6.196;2023-05-03T00:40:15;54700.09;;;-145.32;100.00
14041;BME280;7095;51.388;6.196;2023-05-03T00:42:44;54759.78;;;-145.32;100.00
14041;BME280;7095;51.388;6.196;2023-05-03T00:45:13;54670.28;;;-145.32;100.00
14041;BME280;7095;51.388;6.196;2023-05-03T00:47:42;54664.31;;;-145.32;100.00
14041;BME280;7095;51.388;6.196;2023-05-03T00:50:13;54731.94;;;-145.32;100.00
14041;BME280;7095;51.388;6.196;2023-05-03T00:52:42;54777.66;;;-145.32;100.00
14041;BME280;7095;51.388;6.196;2023-05-03T00:55:10;54747.84;;;-145.32;100.00
14041;BME280;7095;51.388;6.196;2023-05-03T00:57:39;54735.91;;;-145.32;100.00
14041;BME280;7095;51.388;6.196;2023-05-03T01:00:09;54733.91;;;-145.32;100.00
14041;BME280;7095;51.388;6.196;2023-05-03T01:02:39;54714.03;;;-145.32;100.00
14041;BME280;7095;51.388;6.196;2023-05-03T01:05:09;54793.56;;;-145.32;100.00
14041;BME280;7095;51.388;6.196;2023-05-03T01:07:47;54867.16;;;-145.32;100.00
14041;BME280;7095;51.388;6.196;2023-05-03T01:10:23;54887.06;;;-145.32;100.00
14041;BME280;7095;51.388;6.196;2023-05-03T01:12:58;54893.03;;;-145.32;100.00
14041;BME280;7095;51.388;6.196;2023-05-03T01:15:44;54895.00;;;-145.32;100.00
14041;BME280;7095;51.388;6.196;2023-05-03T01:18:19;54817.44;;;-145.32;100.00
14041;BME280;7095;51.388;6.196;2023-05-03T01:20:49;54791.59;;;-145.32;100.00
14041;BME280;7095;51.388;6.196;2023-05-03T01:23:32;54918.88;;;-145.32;100.00
14041;BME280;7095;51.388;6.196;2023-05-03T01:26:18;54924.84;;;-145.32;100.00
14041;BME280;7095;51.388;6.196;2023-05-03T01:28:47;54968.59;;;-145.32;100.00
14041;BME280;7095;51.388;6.196;2023-05-03T01:31:20;55034.22;;;-145.32;100.00
14041;BME280;7095;51.388;6.196;2023-05-03T01:33:58;54968.59;;;-145.32;100.00
14041;BME280;7095;51.388;6.196;2023-05-03T01:36:30;55024.28;;;-145.32;100.00
14041;BME280;7095;51.388;6.196;2023-05-03T01:39:05;54938.75;;;-145.32;100.00
14041;BME280;7095;51.388;6.196;2023-05-03T01:41:39;54930.81;;;-145.32;100.00
14041;BME280;7095;51.388;6.196;2023-05-03T01:44:11;54900.97;;;-145.32;100.00
14041;BME280;7095;51.388;6.196;2023-05-03T01:46:42;54920.88;;;-145.32;100.00
14041;BME280;7095;51.388;6.196;2023-05-03T01:49:11;54958.66;;;-145.32;100.00
14041;BME280;7095;51.388;6.196;2023-05-03T01:51:39;54930.81;;;-145.32;100.00
14041;BME280;7095;51.388;6.196;2023-05-03T01:54:08;55014.34;;;-145.32;100.00
14041;BME280;7095;51.388;6.196;2023-05-03T01:56:38;55018.31;;;-145.32;100.00
14041;BME280;7095;51.388;6.196;2023-05-03T01:59:07;55042.19;;;-145.32;100.00
14041;BME280;7095;51.388;6.196;2023-05-03T02:01:36;55020.31;;;-145.32;100.00
14041;BME280;7095;51.388;6.196;2023-05-03T02:04:06;54954.69;;;-145.32;100.00
14041;BME280;7095;51.388;6.196;2023-05-03T02:06:36;55076.00;;;-145.32;100.00
14041;BME280;7095;51.388;6.196;2023-05-03T02:09:05;55177.44;;;-145.32;100.00
14041;BME280;7095;51.388;6.196;2023-05-03T02:11:34;55133.69;;;-145.32;100.00
14041;BME280;7095;51.388;6.196;2023-05-03T02:14:04;55125.72;;;-145.32;100.00
14041;BME280;7095;51.388;6.196;2023-05-03T02:16:34;55175.44;;;-145.32;100.00
14041;BME280;7095;51.388;6.196;2023-05-03T02:19:02;55157.56;;;-145.32;100.00
14041;BME280;7095;51.388;6.196;2023-05-03T02:21:33;55149.59;;;-145.32;100.00
14041;BME280;7095;51.388;6.196;2023-05-03T02:24:02;55177.44;;;-145.32;100.00
14041;BME280;7095;51.388;6.196;2023-05-03T02:26:31;55171.47;;;-145.32;100.00
14041;BME280;7095;51.388;6.196;2023-05-03T02:29:00;55237.13;;;-145.32;100.00
14041;BME280;7095;51.388;6.196;2023-05-03T02:31:32;55211.25;;;-145.32;100.00
14041;BME280;7095;51.388;6.196;2023-05-03T02:34:02;55247.06;;;-145.32;100.00
14041;BME280;7095;51.388;6.196;2023-05-03T02:36:39;55227.16;;;-145.32;100.00
14041;BME280;7095;51.388;6.196;2023-05-03T02:39:07;55272.91;;;-145.32;100.00
14041;BME280;7095;51.388;6.196;2023-05-03T02:41:36;55191.38;;;-145.32;100.00
14041;BME280;7095;51.388;6.196;2023-05-03T02:44:05;55249.06;;;-145.32;100.00
14041;BME280;7095;51.388;6.196;2023-05-03T02:46:35;55260.97;;;-145.32;100.00
14041;BME280;7095;51.388;6.196;2023-05-03T02:49:04;55292.81;;;-145.32;100.00
14041;BME280;7095;51.388;6.196;2023-05-03T02:51:33;55276.91;;;-145.32;100.00
14041;BME280;7095;51.388;6.196;2023-05-03T02:54:02;55231.16;;;-145.32;100.00
14041;BME280;7095;51.388;6.196;2023-05-03T02:56:31;55249.06;;;-145.32;100.00
14041;BME280;7095;51.388;6.196;2023-05-03T02:59:00;55350.50;;;-145.32;100.00
14041;BME280;7095;51.388;6.196;2023-05-03T03:01:29;55352.47;;;-145.32;100.00
14041;BME280;7095;51.388;6.196;2023-05-03T03:04:01;55257.00;;;-145.32;100.00
14041;BME280;7095;51.388;6.196;2023-05-03T03:06:30;55366.41;;;-145.32;100.00
14041;BME280;7095;51.388;6.196;2023-05-03T03:08:59;55447.97;;;-145.32;100.00
14041;BME280;7095;51.388;6.196;2023-05-03T03:11:27;55400.22;;;-145.32;100.00
14041;BME280;7095;51.388;6.196;2023-05-03T03:13:56;55491.72;;;-145.32;100.00
14041;BME280;7095;51.388;6.196;2023-05-03T03:16:26;55469.84;;;-145.32;100.00
14041;BME280;7095;51.388;6.196;2023-05-03T03:18:54;55491.72;;;-145.32;100.00
14041;BME280;7095;51.388;6.196;2023-05-03T03:21:24;55501.66;;;-145.32;100.00
14041;BME280;7095;51.388;6.196;2023-05-03T03:23:55;55499.69;;;-145.32;100.00
14041;BME280;7095;51.388;6.196;2023-05-03T03:26:23;55636.94;;;-145.32;100.00
14041;BME280;7095;51.388;6.196;2023-05-03T03:28:52;55752.31;;;-145.32;100.00
14041;BME280;7095;51.388;6.196;2023-05-03T03:31:21;55788.13;;;-145.32;100.00
14041;BME280;7095;51.388;6.196;2023-05-03T03:33:53;55798.09;;;-145.32;100.00
14041;BME280;7095;51.388;6.196;2023-05-03T03:36:27;55750.34;;;-145.32;100.00
14041;BME280;7095;51.388;6.196;2023-05-03T03:38:57;55804.06;;;-145.32;100.00
14041;BME280;7095;51.388;6.196;2023-05-03T03:41:26;55961.22;;;-145.32;100.00
14041;BME280;7095;51.388;6.196;2023-05-03T03:43:56;55975.16;;;-145.32;100.00
14041;BME280;7095;51.388;6.196;2023-05-03T03:46:24;56020.91;;;-145.32;100.00
14041;BME280;7095;51.388;6.196;2023-05-03T03:48:55;56088.53;;;-145.32;100.00
14041;BME280;7095;51.388;6.196;2023-05-03T03:51:28;55993.06;;;-145.32;100.00
14041;BME280;7095;51.388;6.196;2023-05-03T03:53:58;55943.31;;;-145.32;100.00
14041;BME280;7095;51.388;6.196;2023-05-03T03:56:32;55931.38;;;-145.32;100.00
14041;BME280;7095;51.388;6.196;2023-05-03T03:59:01;56012.94;;;-145.32;100.00
14041;BME280;7095;51.388;6.196;2023-05-03T04:01:30;55985.09;;;-145.32;100.00
14041;BME280;7095;51.388;6.196;2023-05-03T04:03:59;55983.09;;;-145.32;100.00
14041;BME280;7095;51.388;6.196;2023-05-03T04:06:29;56020.91;;;-145.32;100.00
14041;BME280;7095;51.388;6.196;2023-05-03T04:09:04;56001.00;;;-145.32;100.00
14041;BME280;7095;51.388;6.196;2023-05-03T04:11:34;56018.91;;;-145.32;100.00
14041;BME280;7095;51.388;6.196;2023-05-03T04:14:04;55991.06;;;-145.32;100.00
14041;BME280;7095;51.388;6.196;2023-05-03T04:16:33;56046.75;;;-145.32;100.00
14041;BME280;7095;51.388;6.196;2023-05-03T04:19:03;56032.84;;;-145.32;100.00
14041;BME280;7095;51.388;6.196;2023-05-03T04:21:37;56032.84;;;-145.32;100.00
14041;BME280;7095;51.388;6.196;2023-05-03T04:24:14;56132.31;;;-145.32;100.00
14041;BME280;7095;51.388;6.196;2023-05-03T04:26:44;56255.69;;;-145.32;100.00
14041;BME280;7095;51.388;6.196;2023-05-03T04:29:18;56317.34;;;-145.32;100.00
14041;BME280;7095;51.388;6.196;2023-05-03T04:31:47;56389.00;;;-145.32;100.00
14041;BME280;7095;51.388;6.196;2023-05-03T04:34:16;56414.84;;;-145.32;100.00
14041;BME280;7095;51.388;6.196;2023-05-03T04:36:49;56508.38;;;-145.32;100.00
14041;BME280;7095;51.388;6.196;2023-05-03T04:39:18;56593.94;;;-145.32;100.00
14041;BME280;7095;51.388;6.196;2023-05-03T04:41:47;56542.19;;;-145.32;100.00
14041;BME280;7095;51.388;6.196;2023-05-03T04:44:15;56625.78;;;-145.32;100.00
14041;BME280;7095;51.388;6.196;2023-05-03T04:46:47;56597.91;;;-145.32;100.00
14041;BME280;7095;51.388;6.196;2023-05-03T04:49:17;56635.72;;;-145.32;100.00
14041;BME280;7095;51.388;6.196;2023-05-03T04:51:46;56697.41;;;-145.32;100.00
14041;BME280;7095;51.388;6.196;2023-05-03T04:54:17;56699.41;;;-145.32;100.00
14041;BME280;7095;51.388;6.196;2023-05-03T04:56:47;56777.00;;;-145.32;100.00
14041;BME280;7095;51.388;6.196;2023-05-03T04:59:17;56832.72;;;-145.32;100.00
14041;BME280;7095;51.388;6.196;2023-05-03T05:01:46;56840.69;;;-145.32;100.00
14041;BME280;7095;51.388;6.196;2023-05-03T05:04:16;57007.84;;;-145.32;100.00
14041;BME280;7095;51.388;6.196;2023-05-03T05:06:49;56982.00;;;-145.32;100.00
14041;BME280;7095;51.388;6.196;2023-05-03T05:09:26;57105.38;;;-145.32;100.00
14041;BME280;7095;51.388;6.196;2023-05-03T05:11:57;57099.41;;;-145.32;100.00
14041;BME280;7095;51.388;6.196;2023-05-03T05:14:32;57320.31;;;-145.32;100.00
14041;BME280;7095;51.388;6.196;2023-05-03T05:17:01;57218.81;;;-145.32;100.00
14041;BME280;7095;51.388;6.196;2023-05-03T05:19:30;57186.97;;;-145.32;100.00
14041;BME280;7095;51.388;6.196;2023-05-03T05:21:59;57405.91;;;-145.32;100.00
14041;BME280;7095;51.388;6.196;2023-05-03T05:24:40;57382.03;;;-145.32;100.00
14041;BME280;7095;51.388;6.196;2023-05-03T05:27:11;57236.72;;;-145.32;100.00
14041;BME280;7095;51.388;6.196;2023-05-03T05:29:40;57206.88;;;-145.32;100.00
14041;BME280;7095;51.388;6.196;2023-05-03T05:32:09;57236.72;;;-145.32;100.00
14041;BME280;7095;51.388;6.196;2023-05-03T05:34:39;57163.09;;;-145.32;100.00
14041;BME280;7095;51.388;6.196;2023-05-03T05:37:15;57202.91;;;-145.32;100.00
14041;BME280;7095;51.388;6.196;2023-05-03T05:39:47;57031.75;;;-145.32;100.00
14041;BME280;7095;51.388;6.196;2023-05-03T05:42:18;57039.69;;;-145.32;100.00
14041;BME280;7095;51.388;6.196;2023-05-03T05:44:46;56960.09;;;-145.32;100.00
14041;BME280;7095;51.388;6.196;2023-05-03T05:47:16;57011.84;;;-145.32;100.00
14041;BME280;7095;51.388;6.196;2023-05-03T05:49:46;56976.00;;;-145.32;100.00
14041;BME280;7095;51.388;6.196;2023-05-03T05:52:15;56868.56;;;-145.32;100.00
14041;BME280;7095;51.388;6.196;2023-05-03T05:54:43;56767.06;;;-145.32;100.00
14041;BME280;7095;51.388;6.196;2023-05-03T05:57:14;56745.16;;;-145.32;100.00
14041;BME280;7095;51.388;6.196;2023-05-03T05:59:43;56683.47;;;-145.32;100.00
14041;BME280;7095;51.388;6.196;2023-05-03T06:02:14;56681.50;;;-145.32;100.00
14041;BME280;7095;51.388;6.196;2023-05-03T06:04:46;56582.00;;;-145.32;100.00
14041;BME280;7095;51.388;6.196;2023-05-03T06:07:15;56621.78;;;-145.32;100.00
14041;BME280;7095;51.388;6.196;2023-05-03T06:09:44;56574.03;;;-145.32;100.00
14041;BME280;7095;51.388;6.196;2023-05-03T06:12:14;56406.91;;;-145.32;100.00
14041;BME280;7095;51.388;6.196;2023-05-03T06:14:43;56414.84;;;-145.32;100.00
14041;BME280;7095;51.388;6.196;2023-05-03T06:17:30;56337.25;;;-145.32;100.00
14041;BME280;7095;51.388;6.196;2023-05-03T06:19:59;56414.84;;;-145.32;100.00
14041;BME280;7095;51.388;6.196;2023-05-03T06:22:29;56381.03;;;-145.32;100.00
14041;BME280;7095;51.388;6.196;2023-05-03T06:24:58;56394.97;;;-145.32;100.00
14041;BME280;7095;51.388;6.196;2023-05-03T06:27:28;56094.50;;;-145.32;100.00
14041;BME280;7095;51.388;6.196;2023-05-03T06:29:57;55965.19;;;-145.32;100.00
14041;BME280;7095;51.388;6.196;2023-05-03T06:32:26;55905.50;;;-145.32;100.00
14041;BME280;7095;51.388;6.196;2023-05-03T06:34:54;55750.34;;;-145.32;100.00
14041;BME280;7095;51.388;6.196;2023-05-03T06:37:25;55607.09;;;-145.32;100.00
14041;BME280;7095;51.388;6.196;2023-05-03T06:39:54;55422.09;;;-145.32;100.00
14041;BME280;7095;51.388;6.196;2023-05-03T06:42:23;55543.44;;;-145.32;100.00
14041;BME280;7095;51.388;6.196;2023-05-03T06:45:07;55632.97;;;-145.32;100.00
14041;BME280;7095;51.388;6.196;2023-05-03T06:47:37;55455.91;;;-145.32;100.00
14041;BME280;7095;51.388;6.196;2023-05-03T06:50:09;55259.00;;;-145.32;100.00
14041;BME280;7095;51.388;6.196;2023-05-03T06:52:38;55215.22;;;-145.32;100.00
14041;BME280;7095;51.388;6.196;2023-05-03T06:55:07;55231.16;;;-145.32;100.00
14041;BME280;7095;51.388;6.196;2023-05-03T06:57:37;55243.09;;;-145.32;100.00
14041;BME280;7095;51.388;6.196;2023-05-03T07:00:09;55231.16;;;-145.32;100.00
14041;BME280;7095;51.388;6.196;2023-05-03T07:02:38;55117.78;;;-145.32;100.00
14041;BME280;7095;51.388;6.196;2023-05-03T07:05:07;55113.78;;;-145.32;100.00
14041;BME280;7095;51.388;6.196;2023-05-03T07:07:36;55113.78;;;-145.32;100.00
14041;BME280;7095;51.388;6.196;2023-05-03T07:10:05;54887.06;;;-145.32;100.00
14041;BME280;7095;51.388;6.196;2023-05-03T07:12:34;54938.75;;;-145.32;100.00
14041;BME280;7095;51.388;6.196;2023-05-03T07:15:04;54861.19;;;-145.32;100.00
14041;BME280;7095;51.388;6.196;2023-05-03T07:17:34;54889.03;;;-145.32;100.00
14041;BME280;7095;51.388;6.196;2023-05-03T07:20:05;54849.25;;;-145.32;100.00
14041;BME280;7095;51.388;6.196;2023-05-03T07:22:34;54700.09;;;-145.32;100.00
14041;BME280;7095;51.388;6.196;2023-05-03T07:25:03;54634.47;;;-145.32;100.00
14041;BME280;7095;51.388;6.196;2023-05-03T07:27:31;54624.53;;;-145.32;100.00
14041;BME280;7095;51.388;6.196;2023-05-03T07:30:00;54590.72;;;-145.32;100.00
14041;BME280;7095;51.388;6.196;2023-05-03T07:32:31;54588.75;;;-145.32;100.00
14041;BME280;7095;51.388;6.196;2023-05-03T07:35:01;54541.00;;;-145.32;100.00
14041;BME280;7095;51.388;6.196;2023-05-03T07:37:31;54493.28;;;-145.32;100.00
14041;BME280;7095;51.388;6.196;2023-05-03T07:40:00;54387.88;;;-145.32;100.00
14041;BME280;7095;51.388;6.196;2023-05-03T07:42:29;54381.91;;;-145.32;100.00
14041;BME280;7095;51.388;6.196;2023-05-03T07:44:58;54342.16;;;-145.32;100.00
14041;BME280;7095;51.388;6.196;2023-05-03T07:47:27;54210.91;;;-145.32;100.00
14041;BME280;7095;51.388;6.196;2023-05-03T07:49:56;54244.72;;;-145.32;100.00
14041;BME280;7095;51.388;6.196;2023-05-03T07:52:26;54226.81;;;-145.32;100.00
14041;BME280;7095;51.388;6.196;2023-05-03T07:54:55;54163.19;;;-145.32;100.00
14041;BME280;7095;51.388;6.196;2023-05-03T07:57:23;54165.16;;;-145.32;100.00
14041;BME280;7095;51.388;6.196;2023-05-03T07:59:52;54119.44;;;-145.32;100.00
14041;BME280;7095;51.388;6.196;2023-05-03T08:02:22;54083.66;;;-145.32;100.00
14041;BME280;7095;51.388;6.196;2023-05-03T08:04:50;54053.81;;;-145.32;100.00
14041;BME280;7095;51.388;6.196;2023-05-03T08:07:21;53992.19;;;-145.32;100.00
14041;BME280;7095;51.388;6.196;2023-05-03T08:09:51;53936.50;;;-145.32;100.00
14041;BME280;7095;51.388;6.196;2023-05-03T08:12:20;53944.47;;;-145.32;100.00
14041;BME280;7095;51.388;6.196;2023-05-03T08:14:48;53928.56;;;-145.32;100.00
14041;BME280;7095;51.388;6.196;2023-05-03T08:17:17;53932.53;;;-145.32;100.00
14041;BME280;7095;51.388;6.196;2023-05-03T08:19:47;53958.38;;;-145.32;100.00
14041;BME280;7095;51.388;6.196;2023-05-03T08:22:16;53928.56;;;-145.32;100.00
14041;BME280;7095;51.388;6.196;2023-05-03T08:24:44;53916.63;;;-145.32;100.00
14041;BME280;7095;51.388;6.196;2023-05-03T08:27:15;53956.38;;;-145.32;100.00
14041;BME280;7095;51.388;6.196;2023-05-03T08:29:44;53896.75;;;-145.32;100.00
14041;BME280;7095;51.388;6.196;2023-05-03T08:32:13;53845.03;;;-145.32;100.00
14041;BME280;7095;51.388;6.196;2023-05-03T08:34:41;53853.00;;;-145.32;100.00
14041;BME280;7095;51.388;6.196;2023-05-03T08:37:10;53849.03;;;-145.32;100.00
14041;BME280;7095;51.388;6.196;2023-05-03T08:39:39;53823.16;;;-145.32;100.00
14041;BME280;7095;51.388;6.196;2023-05-03T08:42:08;53805.28;;;-145.32;100.00
14041;BME280;7095;51.388;6.196;2023-05-03T08:44:44;53773.47;;;-145.32;100.00
14041;BME280;7095;51.388;6.196;2023-05-03T08:47:14;53787.38;;;-145.32;100.00
14041;BME280;7095;51.388;6.196;2023-05-03T08:49:43;53787.38;;;-145.32;100.00
14041;BME280;7095;51.388;6.196;2023-05-03T08:52:13;53749.59;;;-145.32;100.00
14041;BME280;7095;51.388;6.196;2023-05-03T08:54:44;53737.69;;;-145.32;100.00
14041;BME280;7095;51.388;6.196;2023-05-03T08:57:13;53717.78;;;-145.32;100.00
14041;BME280;7095;51.388;6.196;2023-05-03T08:59:47;53717.78;;;-145.32;100.00
14041;BME280;7095;51.388;6.196;2023-05-03T09:02:16;53737.69;;;-145.32;100.00
14041;BME280;7095;51.388;6.196;2023-05-03T09:04:45;53721.78;;;-145.32;100.00
14041;BME280;7095;51.388;6.196;2023-05-03T09:07:14;53695.94;;;-145.32;100.00
14041;BME280;7095;51.388;6.196;2023-05-03T09:09:43;53733.69;;;-145.32;100.00
14041;BME280;7095;51.388;6.196;2023-05-03T09:12:32;53682.00;;;-145.32;100.00
14041;BME280;7095;51.388;6.196;2023-05-03T09:15:03;53682.00;;;-145.32;100.00
14041;BME280;7095;51.388;6.196;2023-05-03T09:17:32;53672.06;;;-145.32;100.00
14041;BME280;7095;51.388;6.196;2023-05-03T09:20:01;53658.16;;;-145.32;100.00
14041;BME280;7095;51.388;6.196;2023-05-03T09:22:31;53662.13;;;-145.32;100.00
14041;BME280;7095;51.388;6.196;2023-05-03T09:25:00;53705.88;;;-145.32;100.00
14041;BME280;7095;51.388;6.196;2023-05-03T09:27:30;53678.03;;;-145.32;100.00
14041;BME280;7095;51.388;6.196;2023-05-03T09:30:17;53660.13;;;-145.32;100.00
14041;BME280;7095;51.388;6.196;2023-05-03T09:32:47;53638.28;;;-145.32;100.00
14041;BME280;7095;51.388;6.196;2023-05-03T09:35:17;53644.22;;;-145.32;100.00
14041;BME280;7095;51.388;6.196;2023-05-03T09:37:46;53614.41;;;-145.32;100.00
14041;BME280;7095;51.388;6.196;2023-05-03T09:40:15;53650.19;;;-145.32;100.00
14041;BME280;7095;51.388;6.196;2023-05-03T09:43:09;53634.28;;;-145.32;100.00
14041;BME280;7095;51.388;6.196;2023-05-03T09:45:40;53636.28;;;-145.32;100.00
14041;BME280;7095;51.388;6.196;2023-05-03T09:48:09;53634.28;;;-145.32;100.00
14041;BME280;7095;51.388;6.196;2023-05-03T09:50:39;53620.38;;;-145.32;100.00
14041;BME280;7095;51.388;6.196;2023-05-03T09:53:09;53628.31;;;-145.32;100.00
14041;BME280;7095;51.388;6.196;2023-05-03T09:55:38;53598.50;;;-145.32;100.00
14041;BME280;7095;51.388;6.196;2023-05-03T09:58:07;53608.44;;;-145.32;100.00
14041;BME280;7095;51.388;6.196;2023-05-03T10:00:36;53608.44;;;-145.32;100.00
14041;BME280;7095;51.388;6.196;2023-05-03T10:03:08;53614.41;;;-145.32;100.00
14041;BME280;7095;51.388;6.196;2023-05-03T10:05:43;53626.34;;;-145.32;96.46
14041;BME280;7095;51.388;6.196;2023-05-03T10:08:18;53598.50;;;-145.32;93.83
14041;BME280;7095;51.388;6.196;2023-05-03T10:10:50;53574.66;;;-145.32;99.04
14041;BME280;7095;51.388;6.196;2023-05-03T10:13:21;53558.75;;;-145.32;94.01
14041;BME280;7095;51.388;6.196;2023-05-03T10:15:55;53574.66;;;-145.32;83.81
14041;BME280;7095;51.388;6.196;2023-05-03T10:18:29;53602.47;;;-145.32;92.34
14041;BME280;7095;51.388;6.196;2023-05-03T10:21:04;53564.72;;;-145.32;86.73
14041;BME280;7095;51.388;6.196;2023-05-03T10:23:34;53542.84;;;-145.32;87.95
14041;BME280;7095;51.388;6.196;2023-05-03T10:26:13;53572.66;;;-145.32;87.24
14041;BME280;7095;51.388;6.196;2023-05-03T10:28:42;53564.72;;;-145.32;89.46
14041;BME280;7095;51.388;6.196;2023-05-03T10:31:45;53574.66;;;-145.32;70.03
14041;BME280;7095;51.388;6.196;2023-05-03T10:34:30;53562.72;;;-145.32;75.02
14041;BME280;7095;51.388;6.196;2023-05-03T10:37:01;53564.72;;;-145.32;78.84
14041;BME280;7095;51.388;6.196;2023-05-03T10:39:30;53515.00;;;-145.32;80.69
14041;BME280;7095;51.388;6.196;2023-05-03T10:42:02;53556.75;;;-145.32;73.21
14041;BME280;7095;51.388;6.196;2023-05-03T10:44:37;53536.88;;;-145.32;71.86
14041;BME280;7095;51.388;6.196;2023-05-03T10:47:12;53534.88;;;-145.32;75.28
14041;BME280;7095;51.388;6.196;2023-05-03T10:49:43;53509.03;;;-145.32;73.11
14041;BME280;7095;51.388;6.196;2023-05-03T10:55:17;53532.91;;;-145.32;71.49
14041;BME280;7095;51.388;6.196;2023-05-03T10:57:48;53483.19;;;-145.32;70.64
14041;BME280;7095;51.388;6.196;2023-05-03T11:00:23;53511.03;;;-145.32;71.48
14041;BME280;7095;51.388;6.196;2023-05-03T11:03:08;53493.13;;;-145.32;64.62
14041;BME280;7095;51.388;6.196;2023-05-03T11:05:40;53487.19;;;-145.32;68.08
14041;BME280;7095;51.388;6.196;2023-05-03T11:08:13;53518.97;;;-145.32;63.68
14041;BME280;7095;51.388;6.196;2023-05-03T11:10:44;53491.16;;;-145.32;66.74
14041;BME280;7095;51.388;6.196;2023-05-03T11:13:13;53505.06;;;-145.32;66.16
14041;BME280;7095;51.388;6.196;2023-05-03T11:15:42;53499.09;;;-145.32;62.95
14041;BME280;7095;51.388;6.196;2023-05-03T11:18:14;53505.06;;;-145.32;62.81
14041;BME280;7095;51.388;6.196;2023-05-03T11:20:45;53495.13;;;-145.32;62.59
14041;BME280;7095;51.388;6.196;2023-05-03T11:23:14;53497.13;;;-145.32;61.39
14041;BME280;7095;51.388;6.196;2023-05-03T11:25:43;53497.13;;;-145.32;62.77
14041;BME280;7095;51.388;6.196;2023-05-03T11:28:11;53495.13;;;-145.32;60.33
14041;BME280;7095;51.388;6.196;2023-05-03T11:30:41;53477.22;;;-145.32;60.72
14041;BME280;7095;51.388;6.196;2023-05-03T11:33:09;53471.28;;;-145.32;60.51
14041;BME280;7095;51.388;6.196;2023-05-03T11:35:38;53455.38;;;-145.32;60.15
14041;BME280;7095;51.388;6.196;2023-05-03T11:38:09;53455.38;;;-145.32;58.13
14041;BME280;7095;51.388;6.196;2023-05-03T11:40:38;53447.41;;;-145.32;61.67
14041;BME280;7095;51.388;6.196;2023-05-03T11:43:08;53445.44;;;-145.32;66.88
14041;BME280;7095;51.388;6.196;2023-05-03T11:45:40;53391.75;;;-145.32;59.58
14041;BME280;7095;51.388;6.196;2023-05-03T11:48:11;53423.56;;;-145.32;62.21
14041;BME280;7095;51.388;6.196;2023-05-03T11:50:45;53431.50;;;-145.32;61.96
14041;BME280;7095;51.388;6.196;2023-05-03T11:53:17;53403.69;;;-145.32;59.34
14041;BME280;7095;51.388;6.196;2023-05-03T11:55:48;53403.69;;;-145.32;58.47
14041;BME280;7095;51.388;6.196;2023-05-03T11:58:19;53405.66;;;-145.32;56.07
14041;BME280;7095;51.388;6.196;2023-05-03T12:00:48;53417.59;;;-145.32;54.38
14041;BME280;7095;51.388;6.196;2023-05-03T12:03:18;53391.75;;;-145.32;53.89
14041;BME280;7095;51.388;6.196;2023-05-03T12:05:51;53367.91;;;-145.32;51.78
14041;BME280;7095;51.388;6.196;2023-05-03T12:08:28;53310.25;;;-145.32;47.22
14041;BME280;7095;51.388;6.196;2023-05-03T12:11:01;53320.19;;;-145.32;49.84
14041;BME280;7095;51.388;6.196;2023-05-03T12:13:34;53328.13;;;-145.32;48.82
14041;BME280;7095;51.388;6.196;2023-05-03T12:16:07;53336.09;;;-145.32;47.93
14041;BME280;7095;51.388;6.196;2023-05-03T12:18:48;53314.22;;;-145.32;44.65
14041;BME280;7095;51.388;6.196;2023-05-03T12:21:22;53336.09;;;-145.32;46.75
14041;BME280;7095;51.388;6.196;2023-05-03T12:23:55;53302.28;;;-145.32;45.44
14041;BME280;7095;51.388;6.196;2023-05-03T12:26:26;53292.34;;;-145.32;45.35
14041;BME280;7095;51.388;6.196;2023-05-03T12:28:55;53296.31;;;-145.32;43.99
14041;BME280;7095;51.388;6.196;2023-05-03T12:31:23;53300.31;;;-145.32;43.07
14041;BME280;7095;51.388;6.196;2023-05-03T12:33:55;53270.47;;;-145.32;42.11
14041;BME280;7095;51.388;6.196;2023-05-03T12:36:27;53308.25;;;-145.32;42.70
14041;BME280;7095;51.388;6.196;2023-05-03T12:38:59;53276.44;;;-145.32;43.17
14041;BME280;7095;51.388;6.196;2023-05-03T12:41:28;53306.28;;;-145.32;41.72
14041;BME280;7095;51.388;6.196;2023-05-03T12:44:00;53264.53;;;-145.32;41.78
14041;BME280;7095;51.388;6.196;2023-05-03T12:46:29;53272.47;;;-145.32;42.18
14041;BME280;7095;51.388;6.196;2023-05-03T12:49:01;53262.53;;;-145.32;42.77
14041;BME280;7095;51.388;6.196;2023-05-03T12:51:33;53240.66;;;-145.32;42.18
14041;BME280;7095;51.388;6.196;2023-05-03T12:54:30;53222.78;;;-145.32;40.78
14041;BME280;7095;51.388;6.196;2023-05-03T12:57:00;53212.84;;;-145.32;40.13
14041;BME280;7095;51.388;6.196;2023-05-03T12:59:35;53232.72;;;-145.32;40.05
14041;BME280;7095;51.388;6.196;2023-05-03T13:02:08;53232.72;;;-145.32;39.73
14041;BME280;7095;51.388;6.196;2023-05-03T13:04:40;53230.72;;;-145.32;39.81